Time,TemperatureF,DewpointF,PressureIn,WindDirection,WindDirectionDegrees,WindSpeedMPH,WindSpeedGustMPH,Humidity,HourlyPrecipIn,Conditions,Clouds,dailyrainin,SoftwareType,DateUTC
2013-01-16 00:04:00,35.2,30.6,30.38,NW,321,1.0,3.0,83,0.00,,,0.00,Wunderground v.1.15,2013-01-16 08:04:00,
2013-01-16 00:10:00,34.9,30.6,30.38,NW,321,1.0,3.0,84,0.00,,,0.00,Wunderground v.1.15,2013-01-16 08:10:00,
2013-01-16 00:16:00,34.5,30.2,30.38,NNW,343,2.0,3.0,84,0.00,,,0.00,Wunderground v.1.15,2013-01-16 08:16:00,
2013-01-16 00:21:00,34.4,30.4,30.38,NNW,343,2.0,3.0,85,0.00,,,0.00,Wunderground v.1.15,2013-01-16 08:21:00,
2013-01-16 00:26:00,34.5,30.5,30.38,NNW,343,1.0,3.0,85,0.00,,,0.00,Wunderground v.1.15,2013-01-16 08:26:00,
2013-01-16 00:31:00,34.7,30.4,30.38,NNW,343,1.0,3.0,84,0.00,,,0.00,Wunderground v.1.15,2013-01-16 08:31:00,
2013-01-16 00:37:00,34.9,30.6,30.38,NNW,343,1.0,3.0,84,0.00,,,0.00,Wunderground v.1.15,2013-01-16 08:37:00,
2013-01-16 00:42:00,34.8,30.5,30.38,NNW,343,1.0,3.0,84,0.00,,,0.00,Wunderground v.1.15,2013-01-16 08:42:00,
2013-01-16 00:48:00,34.7,30.4,30.38,NNW,347,1.0,3.0,84,0.00,,,0.00,Wunderground v.1.15,2013-01-16 08:48:00,
2013-01-16 00:54:00,34.5,30.2,30.39,NNW,338,2.0,3.0,84,0.00,,,0.00,Wunderground v.1.15,2013-01-16 08:54:00,
2013-01-16 00:59:00,34.1,29.8,30.39,NNW,328,2.0,3.0,84,0.00,,,0.00,Wunderground v.1.15,2013-01-16 08:59:00,
2013-01-16 01:05:00,33.5,29.5,30.39,NNW,328,2.0,3.0,85,0.00,,,0.00,Wunderground v.1.15,2013-01-16 09:05:00,
2013-01-16 01:11:00,33.5,29.8,30.39,NNW,328,2.0,3.0,86,0.00,,,0.00,Wunderground v.1.15,2013-01-16 09:11:00,
2013-01-16 01:16:00,33.8,30.1,30.38,NNW,328,2.0,3.0,86,0.00,,,0.00,Wunderground v.1.15,2013-01-16 09:16:00,
2013-01-16 01:21:00,34.1,29.8,30.39,NNW,328,2.0,3.0,84,0.00,,,0.00,Wunderground v.1.15,2013-01-16 09:21:00,
2013-01-16 01:26:00,34.0,30.0,30.39,NNW,347,2.0,3.0,85,0.00,,,0.00,Wunderground v.1.15,2013-01-16 09:26:00,
2013-01-16 01:32:00,34.0,30.0,30.39,NNW,346,2.0,3.0,85,0.00,,,0.00,Wunderground v.1.15,2013-01-16 09:32:00,
2013-01-16 01:38:00,34.0,30.0,30.39,NNW,346,1.0,3.0,85,0.00,,,0.00,Wunderground v.1.15,2013-01-16 09:38:00,
2013-01-16 01:44:00,33.9,29.9,30.39,NNW,346,1.0,3.0,85,0.00,,,0.00,Wunderground v.1.15,2013-01-16 09:44:00,
2013-01-16 01:50:00,33.8,30.1,30.39,NNW,346,1.0,3.0,86,0.00,,,0.00,Wunderground v.1.15,2013-01-16 09:50:00,
2013-01-16 01:56:00,33.5,29.8,30.39,NNW,328,2.0,3.0,86,0.00,,,0.00,Wunderground v.1.15,2013-01-16 09:56:00,
2013-01-16 02:02:00,33.3,29.6,30.39,NW,319,2.0,3.0,86,0.00,,,0.00,Wunderground v.1.15,2013-01-16 10:02:00,
2013-01-16 02:08:00,33.8,30.3,30.39,North,10,2.0,3.0,87,0.00,,,0.00,Wunderground v.1.15,2013-01-16 10:08:00,
2013-01-16 02:14:00,34.1,30.1,30.39,North,10,1.0,3.0,85,0.00,,,0.00,Wunderground v.1.15,2013-01-16 10:14:00,
2013-01-16 02:20:00,34.4,30.1,30.39,North,10,0.0,3.0,84,0.00,,,0.00,Wunderground v.1.15,2013-01-16 10:20:00,
2013-01-16 02:26:00,34.6,30.3,30.39,North,10,1.0,3.0,84,0.00,,,0.00,Wunderground v.1.15,2013-01-16 10:26:00,
2013-01-16 02:32:00,34.4,30.4,30.39,North,349,1.0,3.0,85,0.00,,,0.00,Wunderground v.1.15,2013-01-16 10:32:00,
2013-01-16 02:38:00,34.2,30.2,30.39,NNW,347,1.0,3.0,85,0.00,,,0.00,Wunderground v.1.15,2013-01-16 10:38:00,
2013-01-16 02:43:00,34.0,30.3,30.39,NNW,347,1.0,3.0,86,0.00,,,0.00,Wunderground v.1.15,2013-01-16 10:43:00,
2013-01-16 02:49:00,33.6,29.9,30.39,NNW,347,1.0,3.0,86,0.00,,,0.00,Wunderground v.1.15,2013-01-16 10:49:00,
2013-01-16 02:54:00,33.3,29.6,30.39,NNW,346,1.0,3.0,86,0.00,,,0.00,Wunderground v.1.15,2013-01-16 10:54:00,
2013-01-16 02:59:00,33.2,29.8,30.39,NNW,346,1.0,3.0,87,0.00,,,0.00,Wunderground v.1.15,2013-01-16 10:59:00,
2013-01-16 03:05:00,33.7,30.2,30.39,NNE,18,2.0,3.0,87,0.00,,,0.00,Wunderground v.1.15,2013-01-16 11:05:00,
2013-01-16 03:11:00,34.4,30.4,30.39,NE,44,2.0,3.0,85,0.00,,,0.00,Wunderground v.1.15,2013-01-16 11:11:00,
2013-01-16 03:16:00,34.7,30.4,30.39,North,7,2.0,3.0,84,0.00,,,0.00,Wunderground v.1.15,2013-01-16 11:16:00,
2013-01-16 03:22:00,34.4,30.1,30.38,North,6,2.0,3.0,84,0.00,,,0.00,Wunderground v.1.15,2013-01-16 11:22:00,
2013-01-16 03:28:00,33.7,29.7,30.38,North,350,1.0,3.0,85,0.00,,,0.00,Wunderground v.1.15,2013-01-16 11:28:00,
2013-01-16 03:33:00,33.6,29.9,30.38,NNE,17,1.0,3.0,86,0.00,,,0.00,Wunderground v.1.15,2013-01-16 11:33:00,
2013-01-16 03:39:00,33.7,30.0,30.38,NNE,15,1.0,3.0,86,0.00,,,0.00,Wunderground v.1.15,2013-01-16 11:39:00,
2013-01-16 03:44:00,33.6,29.9,30.38,NNW,345,1.0,3.0,86,0.00,,,0.00,Wunderground v.1.15,2013-01-16 11:44:00,
2013-01-16 03:50:00,33.7,30.0,30.38,NNW,345,2.0,3.0,86,0.00,,,0.00,Wunderground v.1.15,2013-01-16 11:50:00,
2013-01-16 03:56:00,33.6,29.9,30.38,NNW,342,1.0,3.0,86,0.00,,,0.00,Wunderground v.1.15,2013-01-16 11:56:00,
2013-01-16 04:01:00,33.6,29.9,30.38,NNW,343,1.0,3.0,86,0.00,,,0.00,Wunderground v.1.15,2013-01-16 12:01:00,
2013-01-16 04:07:00,33.3,29.6,30.38,NNW,336,2.0,3.0,86,0.00,,,0.00,Wunderground v.1.15,2013-01-16 12:07:00,
2013-01-16 04:12:00,33.1,29.7,30.37,NNW,336,2.0,3.0,87,0.00,,,0.00,Wunderground v.1.15,2013-01-16 12:12:00,
2013-01-16 04:18:00,33.1,29.9,30.37,NNW,336,1.0,3.0,88,0.00,,,0.00,Wunderground v.1.15,2013-01-16 12:18:00,
2013-01-16 04:24:00,33.1,29.7,30.37,NNW,336,1.0,3.0,87,0.00,,,0.00,Wunderground v.1.15,2013-01-16 12:24:00,
2013-01-16 04:30:00,32.6,28.9,30.37,NNW,335,1.0,3.0,86,0.00,,,0.00,Wunderground v.1.15,2013-01-16 12:30:00,
2013-01-16 04:35:00,32.4,29.0,30.37,NNW,335,1.0,3.0,87,0.00,,,0.00,Wunderground v.1.15,2013-01-16 12:35:00,
2013-01-16 04:40:00,32.2,28.8,30.37,NNW,331,1.0,3.0,87,0.00,,,0.00,Wunderground v.1.15,2013-01-16 12:40:00,
2013-01-16 04:46:00,32.3,29.1,30.37,NNW,330,1.0,3.0,88,0.00,,,0.00,Wunderground v.1.15,2013-01-16 12:46:00,
2013-01-16 04:51:00,32.3,28.9,30.37,NNW,331,1.0,3.0,87,0.00,,,0.00,Wunderground v.1.15,2013-01-16 12:51:00,
2013-01-16 04:56:00,31.8,28.7,30.37,NW,326,1.0,3.0,88,0.00,,,0.00,Wunderground v.1.15,2013-01-16 12:56:00,
2013-01-16 05:02:00,31.4,28.5,30.37,NW,326,1.0,3.0,89,0.00,,,0.00,Wunderground v.1.15,2013-01-16 13:02:00,
2013-01-16 05:07:00,31.3,28.4,30.37,NW,326,1.0,3.0,89,0.00,,,0.00,Wunderground v.1.15,2013-01-16 13:07:00,
2013-01-16 05:12:00,31.4,28.5,30.37,NW,326,1.0,3.0,89,0.00,,,0.00,Wunderground v.1.15,2013-01-16 13:12:00,
2013-01-16 05:17:00,31.4,28.5,30.37,NW,326,1.0,3.0,89,0.00,,,0.00,Wunderground v.1.15,2013-01-16 13:17:00,
2013-01-16 05:22:00,31.3,28.4,30.37,NW,326,1.0,3.0,89,0.00,,,0.00,Wunderground v.1.15,2013-01-16 13:22:00,
2013-01-16 05:28:00,31.2,28.3,30.37,NW,326,2.0,3.0,89,0.00,,,0.00,Wunderground v.1.15,2013-01-16 13:28:00,
2013-01-16 05:34:00,31.3,28.7,30.37,NW,326,1.0,3.0,90,0.00,,,0.00,Wunderground v.1.15,2013-01-16 13:34:00,
2013-01-16 05:39:00,31.7,29.1,30.37,NW,326,1.0,3.0,90,0.00,,,0.00,Wunderground v.1.15,2013-01-16 13:39:00,
2013-01-16 05:45:00,31.7,28.8,30.37,NNW,327,1.0,3.0,89,0.00,,,0.00,Wunderground v.1.15,2013-01-16 13:45:00,
2013-01-16 05:50:00,31.8,28.9,30.37,NW,326,1.0,3.0,89,0.00,,,0.00,Wunderground v.1.15,2013-01-16 13:50:00,
2013-01-16 05:56:00,31.9,29.0,30.36,NW,326,1.0,3.0,89,0.00,,,0.00,Wunderground v.1.15,2013-01-16 13:56:00,
2013-01-16 06:01:00,31.9,29.0,30.37,NW,326,1.0,3.0,89,0.00,,,0.00,Wunderground v.1.15,2013-01-16 14:01:00,
2013-01-16 06:07:00,31.8,28.9,30.36,NW,326,1.0,3.0,89,0.00,,,0.00,Wunderground v.1.15,2013-01-16 14:07:00,
2013-01-16 06:13:00,31.8,28.9,30.36,NW,326,1.0,3.0,89,0.00,,,0.00,Wunderground v.1.15,2013-01-16 14:13:00,
2013-01-16 06:18:00,32.4,29.8,30.36,North,349,2.0,3.0,90,0.00,,,0.00,Wunderground v.1.15,2013-01-16 14:18:00,
2013-01-16 06:24:00,32.7,29.5,30.36,North,349,2.0,3.0,88,0.00,,,0.00,Wunderground v.1.15,2013-01-16 14:24:00,
2013-01-16 06:29:00,32.5,29.3,30.36,NNW,335,1.0,3.0,88,0.00,,,0.00,Wunderground v.1.15,2013-01-16 14:29:00,
2013-01-16 06:35:00,32.4,29.5,30.36,NNW,333,1.0,3.0,89,0.00,,,0.00,Wunderground v.1.15,2013-01-16 14:35:00,
2013-01-16 06:41:00,32.4,29.5,30.36,NNW,328,1.0,3.0,89,0.00,,,0.00,Wunderground v.1.15,2013-01-16 14:41:00,
2013-01-16 06:47:00,32.4,29.5,30.36,NNW,328,2.0,3.0,89,0.00,,,0.00,Wunderground v.1.15,2013-01-16 14:47:00,
2013-01-16 06:52:00,32.7,29.8,30.36,NNW,328,2.0,3.0,89,0.00,,,0.00,Wunderground v.1.15,2013-01-16 14:52:00,
2013-01-16 06:57:00,32.6,29.4,30.36,NNW,328,2.0,3.0,88,0.00,,,0.00,Wunderground v.1.15,2013-01-16 14:57:00,
2013-01-16 07:03:00,32.5,29.6,30.36,NNW,328,0.0,3.0,89,0.00,,,0.00,Wunderground v.1.15,2013-01-16 15:03:00,
2013-01-16 07:09:00,32.5,29.6,30.36,NNW,328,1.0,3.0,89,0.00,,,0.00,Wunderground v.1.15,2013-01-16 15:09:00,
2013-01-16 07:14:00,32.1,29.2,30.37,NW,323,2.0,3.0,89,0.00,,,0.00,Wunderground v.1.15,2013-01-16 15:14:00,
2013-01-16 07:20:00,32.2,29.3,30.37,NW,323,1.0,3.0,89,0.00,,,0.00,Wunderground v.1.15,2013-01-16 15:20:00,
2013-01-16 07:26:00,32.0,29.1,30.37,NW,323,1.0,3.0,89,0.00,,,0.00,Wunderground v.1.15,2013-01-16 15:26:00,
2013-01-16 07:32:00,32.0,29.4,30.37,NW,323,1.0,3.0,90,0.00,,,0.00,Wunderground v.1.15,2013-01-16 15:32:00,
2013-01-16 07:37:00,32.3,29.4,30.37,NW,323,1.0,3.0,89,0.00,,,0.00,Wunderground v.1.15,2013-01-16 15:37:00,
2013-01-16 07:43:00,32.0,29.1,30.37,NW,323,1.0,3.0,89,0.00,,,0.00,Wunderground v.1.15,2013-01-16 15:43:00,
2013-01-16 07:49:00,31.6,28.7,30.37,NW,323,1.0,3.0,89,0.00,,,0.00,Wunderground v.1.15,2013-01-16 15:49:00,
2013-01-16 07:54:00,31.8,29.2,30.38,NW,323,1.0,3.0,90,0.00,,,0.00,Wunderground v.1.15,2013-01-16 15:54:00,
2013-01-16 08:00:00,32.0,29.1,30.38,NW,323,1.0,1.0,89,0.00,,,0.00,Wunderground v.1.15,2013-01-16 16:00:00,
2013-01-16 08:05:00,32.2,29.6,30.37,NW,323,1.0,3.0,90,0.00,,,0.00,Wunderground v.1.15,2013-01-16 16:05:00,
2013-01-16 08:11:00,32.7,30.1,30.38,NW,323,1.0,3.0,90,0.00,,,0.00,Wunderground v.1.15,2013-01-16 16:11:00,
2013-01-16 08:17:00,33.0,30.1,30.38,NW,323,1.0,3.0,89,0.00,,,0.00,Wunderground v.1.15,2013-01-16 16:17:00,
2013-01-16 08:23:00,33.5,30.9,30.38,NW,323,1.0,3.0,90,0.00,,,0.00,Wunderground v.1.15,2013-01-16 16:23:00,
2013-01-16 08:29:00,34.1,31.2,30.38,NW,323,1.0,3.0,89,0.00,,,0.00,Wunderground v.1.15,2013-01-16 16:29:00,
2013-01-16 08:35:00,34.9,31.4,30.38,NW,323,1.0,3.0,87,0.00,,,0.00,Wunderground v.1.15,2013-01-16 16:35:00,
2013-01-16 08:41:00,35.8,32.0,30.38,NW,323,1.0,3.0,86,0.00,,,0.00,Wunderground v.1.15,2013-01-16 16:41:00,
2013-01-16 08:47:00,36.3,32.2,30.38,NW,323,1.0,3.0,85,0.00,,,0.00,Wunderground v.1.15,2013-01-16 16:47:00,
2013-01-16 08:52:00,36.9,32.8,30.38,NW,323,0.0,3.0,85,0.00,,,0.00,Wunderground v.1.15,2013-01-16 16:52:00,
2013-01-16 08:58:00,38.0,33.9,30.38,NW,323,0.0,3.0,85,0.00,,,0.00,Wunderground v.1.15,2013-01-16 16:58:00,
2013-01-16 09:03:00,38.8,34.1,30.38,NW,323,0.0,3.0,83,0.00,,,0.00,Wunderground v.1.15,2013-01-16 17:03:00,
2013-01-16 09:09:00,39.6,33.9,30.38,NW,323,0.0,3.0,80,0.00,,,0.00,Wunderground v.1.15,2013-01-16 17:09:00,
2013-01-16 09:15:00,40.5,33.5,30.38,NW,324,0.0,3.0,76,0.00,,,0.00,Wunderground v.1.15,2013-01-16 17:15:00,
2013-01-16 09:21:00,41.2,33.9,30.38,NW,323,0.0,3.0,75,0.00,,,0.00,Wunderground v.1.15,2013-01-16 17:21:00,
2013-01-16 09:27:00,42.1,34.1,30.37,NW,323,0.0,3.0,73,0.00,,,0.00,Wunderground v.1.15,2013-01-16 17:27:00,
2013-01-16 09:33:00,42.9,34.5,30.37,NW,323,0.0,3.0,72,0.00,,,0.00,Wunderground v.1.15,2013-01-16 17:33:00,
2013-01-16 09:39:00,43.8,34.6,30.37,WSW,246,0.0,3.0,70,0.00,,,0.00,Wunderground v.1.15,2013-01-16 17:39:00,
2013-01-16 09:44:00,44.5,35.0,30.37,SW,231,0.0,3.0,69,0.00,,,0.00,Wunderground v.1.15,2013-01-16 17:44:00,
2013-01-16 09:50:00,45.5,35.2,30.37,SW,214,0.0,3.0,67,0.00,,,0.00,Wunderground v.1.15,2013-01-16 17:50:00,
2013-01-16 09:55:00,46.0,34.5,30.37,SW,214,0.0,3.0,64,0.00,,,0.00,Wunderground v.1.15,2013-01-16 17:55:00,
2013-01-16 10:00:00,47.0,35.0,30.36,SW,214,0.0,3.0,63,0.00,,,0.00,Wunderground v.1.15,2013-01-16 18:00:00,
2013-01-16 10:05:00,47.9,37.5,30.36,SSE,166,1.0,4.0,67,0.00,,,0.00,Wunderground v.1.15,2013-01-16 18:05:00,
2013-01-16 10:11:00,46.7,37.1,30.36,SSW,202,3.0,4.0,69,0.00,,,0.00,Wunderground v.1.15,2013-01-16 18:11:00,
2013-01-16 10:17:00,46.0,36.8,30.36,SSW,212,4.0,5.0,70,0.00,,,0.00,Wunderground v.1.15,2013-01-16 18:17:00,
2013-01-16 10:23:00,45.7,36.5,30.36,SW,236,3.0,4.0,70,0.00,,,0.00,Wunderground v.1.15,2013-01-16 18:23:00,
2013-01-16 10:29:00,46.2,35.8,30.35,SSE,160,2.0,4.0,67,0.00,,,0.00,Wunderground v.1.15,2013-01-16 18:29:00,
2013-01-16 10:35:00,47.0,35.8,30.35,SW,217,1.0,3.0,65,0.00,,,0.00,Wunderground v.1.15,2013-01-16 18:35:00,
2013-01-16 10:40:00,47.9,35.9,30.35,WSW,239,1.0,3.0,63,0.00,,,0.00,Wunderground v.1.15,2013-01-16 18:40:00,
2013-01-16 10:46:00,48.8,36.4,30.35,WSW,243,1.0,3.0,62,0.00,,,0.00,Wunderground v.1.15,2013-01-16 18:46:00,
2013-01-16 10:52:00,49.6,36.3,30.34,SW,235,1.0,3.0,60,0.00,,,0.00,Wunderground v.1.15,2013-01-16 18:52:00,
2013-01-16 10:58:00,50.6,36.8,30.34,SSW,212,1.0,3.0,59,0.00,,,0.00,Wunderground v.1.15,2013-01-16 18:58:00,
2013-01-16 11:03:00,50.9,36.2,30.34,SSW,194,2.0,4.0,57,0.00,,,0.00,Wunderground v.1.15,2013-01-16 19:03:00,
2013-01-16 11:09:00,51.3,37.4,30.33,WSW,240,2.0,4.0,59,0.00,,,0.00,Wunderground v.1.15,2013-01-16 19:09:00,
2013-01-16 11:15:00,51.3,37.4,30.33,SW,219,2.0,3.0,59,0.00,,,0.00,Wunderground v.1.15,2013-01-16 19:15:00,
2013-01-16 11:20:00,52.0,36.8,30.33,SSW,207,2.0,3.0,56,0.00,,,0.00,Wunderground v.1.15,2013-01-16 19:20:00,
2013-01-16 11:25:00,52.5,36.3,30.32,SSW,213,2.0,4.0,54,0.00,,,0.00,Wunderground v.1.15,2013-01-16 19:25:00,
2013-01-16 11:31:00,52.2,35.6,30.32,SW,214,2.0,3.0,53,0.00,,,0.00,Wunderground v.1.15,2013-01-16 19:31:00,
2013-01-16 11:37:00,52.5,36.3,30.31,SW,226,2.0,3.0,54,0.00,,,0.00,Wunderground v.1.15,2013-01-16 19:37:00,
2013-01-16 11:43:00,53.3,36.6,30.31,SW,223,2.0,3.0,53,0.00,,,0.00,Wunderground v.1.15,2013-01-16 19:43:00,
2013-01-16 11:48:00,53.7,36.0,30.31,South,191,2.0,4.0,51,0.00,,,0.00,Wunderground v.1.15,2013-01-16 19:48:00,
2013-01-16 11:54:00,53.8,35.1,30.30,SSE,152,3.0,3.0,49,0.00,,,0.00,Wunderground v.1.15,2013-01-16 19:54:00,
2013-01-16 11:59:00,54.6,35.8,30.30,SW,214,2.0,4.0,49,0.00,,,0.00,Wunderground v.1.15,2013-01-16 19:59:00,
2013-01-16 12:05:00,55.1,35.7,30.29,WSW,248,2.0,4.0,48,0.00,,,0.00,Wunderground v.1.15,2013-01-16 20:05:00,
2013-01-16 12:11:00,55.6,36.2,30.29,SW,224,3.0,3.0,48,0.00,,,0.00,Wunderground v.1.15,2013-01-16 20:11:00,
2013-01-16 12:17:00,55.5,36.1,30.29,SW,214,3.0,4.0,48,0.00,,,0.00,Wunderground v.1.15,2013-01-16 20:17:00,
2013-01-16 12:23:00,55.2,34.8,30.28,WSW,243,3.0,4.0,46,0.00,,,0.00,Wunderground v.1.15,2013-01-16 20:23:00,
2013-01-16 12:29:00,54.9,33.9,30.28,SW,228,4.0,5.0,45,0.00,,,0.00,Wunderground v.1.15,2013-01-16 20:29:00,
2013-01-16 12:35:00,54.9,34.5,30.28,SSW,212,4.0,5.0,46,0.00,,,0.00,Wunderground v.1.15,2013-01-16 20:35:00,
2013-01-16 12:40:00,54.9,34.5,30.27,SW,228,3.0,3.0,46,0.00,,,0.00,Wunderground v.1.15,2013-01-16 20:40:00,
2013-01-16 12:46:00,55.4,34.9,30.27,SSE,162,3.0,4.0,46,0.00,,,0.00,Wunderground v.1.15,2013-01-16 20:46:00,
2013-01-16 12:51:00,55.2,35.3,30.27,WSW,241,3.0,3.0,47,0.00,,,0.00,Wunderground v.1.15,2013-01-16 20:51:00,
2013-01-16 12:57:00,55.9,35.9,30.26,SSE,153,3.0,4.0,47,0.00,,,0.00,Wunderground v.1.15,2013-01-16 20:57:00,
2013-01-16 13:02:00,56.5,36.5,30.26,South,191,3.0,3.0,47,0.00,,,0.00,Wunderground v.1.15,2013-01-16 21:02:00,
2013-01-16 13:08:00,56.7,35.0,30.26,SSW,198,4.0,5.0,44,0.00,,,0.00,Wunderground v.1.15,2013-01-16 21:08:00,
2013-01-16 13:14:00,56.6,36.0,30.26,South,191,4.0,4.0,46,0.00,,,0.00,Wunderground v.1.15,2013-01-16 21:14:00,
2013-01-16 13:19:00,57.0,36.4,30.26,SSW,207,3.0,4.0,46,0.00,,,0.00,Wunderground v.1.15,2013-01-16 21:19:00,
2013-01-16 13:25:00,57.5,37.9,30.25,SW,218,2.0,5.0,48,0.00,,,0.00,Wunderground v.1.15,2013-01-16 21:25:00,
2013-01-16 13:31:00,56.8,36.8,30.25,WSW,247,3.0,3.0,47,0.00,,,0.00,Wunderground v.1.15,2013-01-16 21:31:00,
2013-01-16 13:37:00,56.3,38.4,30.25,WSW,243,3.0,4.0,51,0.00,,,0.00,Wunderground v.1.15,2013-01-16 21:37:00,
2013-01-16 13:42:00,55.9,40.4,30.26,WSW,248,3.0,4.0,56,0.00,,,0.00,Wunderground v.1.15,2013-01-16 21:42:00,
2013-01-16 13:47:00,54.8,38.9,30.26,SSW,207,4.0,6.0,55,0.00,,,0.00,Wunderground v.1.15,2013-01-16 21:47:00,
2013-01-16 13:53:00,54.2,36.5,30.25,SSW,201,5.0,5.0,51,0.00,,,0.00,Wunderground v.1.15,2013-01-16 21:53:00,
2013-01-16 13:59:00,54.4,38.6,30.25,WSW,248,4.0,6.0,55,0.00,,,0.00,Wunderground v.1.15,2013-01-16 21:59:00,
2013-01-16 14:05:00,54.3,39.8,30.25,SSW,204,4.0,7.0,58,0.00,,,0.00,Wunderground v.1.15,2013-01-16 22:05:00,
2013-01-16 14:11:00,54.5,37.2,30.25,SW,222,3.0,6.0,52,0.00,,,0.00,Wunderground v.1.15,2013-01-16 22:11:00,
2013-01-16 14:16:00,54.0,36.8,30.25,WSW,255,4.0,7.0,52,0.00,,,0.00,Wunderground v.1.15,2013-01-16 22:16:00,
2013-01-16 14:21:00,54.5,36.7,30.25,SSW,193,4.0,4.0,51,0.00,,,0.00,Wunderground v.1.15,2013-01-16 22:21:00,
2013-01-16 14:27:00,54.9,36.6,30.25,SW,229,3.0,6.0,50,0.00,,,0.00,Wunderground v.1.15,2013-01-16 22:27:00,
2013-01-16 14:32:00,55.2,36.9,30.25,South,189,3.0,6.0,50,0.00,,,0.00,Wunderground v.1.15,2013-01-16 22:32:00,
2013-01-16 14:37:00,55.5,35.6,30.25,WSW,246,3.0,6.0,47,0.00,,,0.00,Wunderground v.1.15,2013-01-16 22:37:00,
2013-01-16 14:43:00,56.0,35.5,30.25,SSW,195,2.0,4.0,46,0.00,,,0.00,Wunderground v.1.15,2013-01-16 22:43:00,
2013-01-16 14:48:00,55.9,34.8,30.25,South,189,3.0,4.0,45,0.00,,,0.00,Wunderground v.1.15,2013-01-16 22:48:00,
2013-01-16 14:53:00,56.0,34.4,30.25,South,188,3.0,4.0,44,0.00,,,0.00,Wunderground v.1.15,2013-01-16 22:53:00,
2013-01-16 14:59:00,56.2,35.1,30.25,SSW,194,3.0,4.0,45,0.00,,,0.00,Wunderground v.1.15,2013-01-16 22:59:00,
2013-01-16 15:04:00,56.8,34.5,30.25,West,268,2.0,4.0,43,0.00,,,0.00,Wunderground v.1.15,2013-01-16 23:04:00,
2013-01-16 15:10:00,56.5,34.8,30.25,SW,227,2.0,3.0,44,0.00,,,0.00,Wunderground v.1.15,2013-01-16 23:10:00,
2013-01-16 15:16:00,57.0,34.7,30.25,SW,219,2.0,3.0,43,0.00,,,0.00,Wunderground v.1.15,2013-01-16 23:16:00,
2013-01-16 15:22:00,56.9,34.6,30.25,SW,217,2.0,4.0,43,0.00,,,0.00,Wunderground v.1.15,2013-01-16 23:22:00,
2013-01-16 15:28:00,56.7,35.0,30.25,SSW,207,3.0,4.0,44,0.00,,,0.00,Wunderground v.1.15,2013-01-16 23:28:00,
2013-01-16 15:33:00,56.8,35.7,30.25,SSW,198,2.0,3.0,45,0.00,,,0.00,Wunderground v.1.15,2013-01-16 23:33:00,
2013-01-16 15:38:00,56.7,35.0,30.25,WSW,238,2.0,3.0,44,0.00,,,0.00,Wunderground v.1.15,2013-01-16 23:38:00,
2013-01-16 15:44:00,56.8,36.2,30.25,SW,226,2.0,3.0,46,0.00,,,0.00,Wunderground v.1.15,2013-01-16 23:44:00,
2013-01-16 15:50:00,57.2,36.0,30.25,SSW,205,2.0,2.0,45,0.00,,,0.00,Wunderground v.1.15,2013-01-16 23:50:00,
2013-01-16 15:56:00,57.2,35.5,30.25,SSE,165,2.0,3.0,44,0.00,,,0.00,Wunderground v.1.15,2013-01-16 23:56:00,
2013-01-16 16:01:00,57.4,35.6,30.25,SSW,207,2.0,3.0,44,0.00,,,0.00,Wunderground v.1.15,2013-01-17 00:01:00,
2013-01-16 16:07:00,58.0,35.6,30.24,SSW,201,1.0,3.0,43,0.00,,,0.00,Wunderground v.1.15,2013-01-17 00:07:00,
2013-01-16 16:12:00,58.4,36.0,30.24,SSW,201,1.0,3.0,43,0.00,,,0.00,Wunderground v.1.15,2013-01-17 00:12:00,
2013-01-16 16:18:00,58.9,35.2,30.24,WSW,240,0.0,3.0,41,0.00,,,0.00,Wunderground v.1.15,2013-01-17 00:18:00,
2013-01-16 16:23:00,58.6,35.0,30.24,WSW,240,1.0,3.0,41,0.00,,,0.00,Wunderground v.1.15,2013-01-17 00:23:00,
2013-01-16 16:29:00,58.5,35.5,30.24,WSW,240,1.0,3.0,42,0.00,,,0.00,Wunderground v.1.15,2013-01-17 00:29:00,
2013-01-16 16:35:00,58.5,36.6,30.24,WSW,240,1.0,3.0,44,0.00,,,0.00,Wunderground v.1.15,2013-01-17 00:35:00,
2013-01-16 16:41:00,58.6,36.2,30.23,WSW,240,0.0,3.0,43,0.00,,,0.00,Wunderground v.1.15,2013-01-17 00:41:00,
2013-01-16 16:46:00,58.8,36.3,30.23,WSW,240,0.0,3.0,43,0.00,,,0.00,Wunderground v.1.15,2013-01-17 00:46:00,
2013-01-16 16:52:00,59.0,38.2,30.23,WSW,239,0.0,3.0,46,0.00,,,0.00,Wunderground v.1.15,2013-01-17 00:52:00,
2013-01-16 16:57:00,56.8,38.3,30.23,WSW,239,0.0,3.0,50,0.00,,,0.00,Wunderground v.1.15,2013-01-17 00:57:00,
2013-01-16 17:03:00,55.2,37.9,30.23,WSW,239,0.0,3.0,52,0.00,,,0.00,Wunderground v.1.15,2013-01-17 01:03:00,
2013-01-16 17:09:00,53.7,37.4,30.23,WSW,239,0.0,3.0,54,0.00,,,0.00,Wunderground v.1.15,2013-01-17 01:09:00,
2013-01-16 17:15:00,52.5,37.2,30.24,WSW,240,0.0,3.0,56,0.00,,,0.00,Wunderground v.1.15,2013-01-17 01:15:00,
2013-01-16 17:21:00,51.7,37.8,30.24,WSW,240,0.0,3.0,59,0.00,,,0.00,Wunderground v.1.15,2013-01-17 01:21:00,
2013-01-16 17:26:00,51.2,37.4,30.24,WSW,240,0.0,3.0,59,0.00,,,0.00,Wunderground v.1.15,2013-01-17 01:26:00,
2013-01-16 17:32:00,50.8,37.4,30.23,WSW,239,0.0,3.0,60,0.00,,,0.00,Wunderground v.1.15,2013-01-17 01:32:00,
2013-01-16 17:38:00,50.0,37.1,30.24,WSW,239,0.0,3.0,61,0.00,,,0.00,Wunderground v.1.15,2013-01-17 01:38:00,
2013-01-16 17:43:00,49.3,37.6,30.24,WSW,239,1.0,3.0,64,0.00,,,0.00,Wunderground v.1.15,2013-01-17 01:43:00,
2013-01-16 17:49:00,49.0,37.7,30.24,NNW,330,1.0,3.0,65,0.00,,,0.00,Wunderground v.1.15,2013-01-17 01:49:00,
2013-01-16 17:55:00,48.6,37.7,30.24,NNW,331,1.0,3.0,66,0.00,,,0.00,Wunderground v.1.15,2013-01-17 01:55:00,
2013-01-16 18:01:00,48.2,37.8,30.24,NNW,330,1.0,3.0,67,0.00,,,0.00,Wunderground v.1.15,2013-01-17 02:01:00,
2013-01-16 18:07:00,47.9,37.8,30.24,NNW,330,1.0,3.0,68,0.00,,,0.00,Wunderground v.1.15,2013-01-17 02:07:00,
2013-01-16 18:12:00,47.6,37.6,30.23,NNW,329,1.0,3.0,68,0.00,,,0.00,Wunderground v.1.15,2013-01-17 02:12:00,
2013-01-16 18:18:00,47.5,37.8,30.24,NNW,328,1.0,3.0,69,0.00,,,0.00,Wunderground v.1.15,2013-01-17 02:18:00,
2013-01-16 18:24:00,47.1,37.8,30.23,NNW,328,1.0,3.0,70,0.00,,,0.00,Wunderground v.1.15,2013-01-17 02:24:00,
2013-01-16 18:29:00,46.7,38.1,30.24,NNW,328,1.0,3.0,72,0.00,,,0.00,Wunderground v.1.15,2013-01-17 02:29:00,
2013-01-16 18:35:00,46.3,38.1,30.23,NNW,328,1.0,3.0,73,0.00,,,0.00,Wunderground v.1.15,2013-01-17 02:35:00,
2013-01-16 18:40:00,46.0,38.2,30.23,NNW,329,1.0,3.0,74,0.00,,,0.00,Wunderground v.1.15,2013-01-17 02:40:00,
2013-01-16 18:45:00,46.1,38.3,30.23,NNW,334,1.0,3.0,74,0.00,,,0.00,Wunderground v.1.15,2013-01-17 02:45:00,
2013-01-16 18:51:00,45.9,38.4,30.23,NNW,339,2.0,3.0,75,0.00,,,0.00,Wunderground v.1.15,2013-01-17 02:51:00,
2013-01-16 18:57:00,46.0,38.2,30.23,NNW,343,2.0,3.0,74,0.00,,,0.00,Wunderground v.1.15,2013-01-17 02:57:00,
2013-01-16 19:03:00,45.7,38.2,30.23,NNW,330,2.0,3.0,75,0.00,,,0.00,Wunderground v.1.15,2013-01-17 03:03:00,
2013-01-16 19:08:00,45.4,38.3,30.23,NNW,330,1.0,3.0,76,0.00,,,0.00,Wunderground v.1.15,2013-01-17 03:08:00,
2013-01-16 19:14:00,45.1,38.3,30.23,NNW,330,1.0,3.0,77,0.00,,,0.00,Wunderground v.1.15,2013-01-17 03:14:00,
2013-01-16 19:20:00,44.8,38.0,30.23,NNW,330,1.0,3.0,77,0.00,,,0.00,Wunderground v.1.15,2013-01-17 03:20:00,
2013-01-16 19:26:00,44.5,38.1,30.23,NNW,331,1.0,3.0,78,0.00,,,0.00,Wunderground v.1.15,2013-01-17 03:26:00,
2013-01-16 19:31:00,44.2,37.8,30.23,NNW,330,1.0,3.0,78,0.00,,,0.00,Wunderground v.1.15,2013-01-17 03:31:00,
2013-01-16 19:36:00,43.9,37.8,30.23,NNW,330,1.0,3.0,79,0.00,,,0.00,Wunderground v.1.15,2013-01-17 03:36:00,
2013-01-16 19:41:00,43.6,37.5,30.23,NNW,330,1.0,3.0,79,0.00,,,0.00,Wunderground v.1.15,2013-01-17 03:41:00,
2013-01-16 19:47:00,43.5,37.7,30.23,NNW,330,1.0,3.0,80,0.00,,,0.00,Wunderground v.1.15,2013-01-17 03:47:00,
2013-01-16 19:53:00,43.7,37.9,30.23,NNW,330,1.0,3.0,80,0.00,,,0.00,Wunderground v.1.15,2013-01-17 03:53:00,
2013-01-16 19:59:00,43.5,37.7,30.23,NNW,330,1.0,3.0,80,0.00,,,0.00,Wunderground v.1.15,2013-01-17 03:59:00,
2013-01-16 20:04:00,43.2,37.4,30.23,NNW,330,2.0,3.0,80,0.00,,,0.00,Wunderground v.1.15,2013-01-17 04:04:00,
2013-01-16 20:10:00,42.9,37.5,30.23,NNW,330,2.0,3.0,81,0.00,,,0.00,Wunderground v.1.15,2013-01-17 04:10:00,
2013-01-16 20:15:00,42.7,37.3,30.23,NNW,330,2.0,3.0,81,0.00,,,0.00,Wunderground v.1.15,2013-01-17 04:15:00,
2013-01-16 20:21:00,42.7,37.3,30.23,NNW,333,2.0,3.0,81,0.00,,,0.00,Wunderground v.1.15,2013-01-17 04:21:00,
2013-01-16 20:26:00,42.6,37.5,30.22,NNW,335,2.0,3.0,82,0.00,,,0.00,Wunderground v.1.15,2013-01-17 04:26:00,
2013-01-16 20:32:00,42.6,37.5,30.22,NNW,338,2.0,3.0,82,0.00,,,0.00,Wunderground v.1.15,2013-01-17 04:32:00,
2013-01-16 20:38:00,42.4,37.3,30.22,NNW,338,2.0,3.0,82,0.00,,,0.00,Wunderground v.1.15,2013-01-17 04:38:00,
2013-01-16 20:44:00,42.3,37.2,30.22,NW,326,2.0,3.0,82,0.00,,,0.00,Wunderground v.1.15,2013-01-17 04:44:00,
2013-01-16 20:49:00,42.4,37.3,30.22,NW,326,2.0,3.0,82,0.00,,,0.00,Wunderground v.1.15,2013-01-17 04:49:00,
2013-01-16 20:55:00,42.3,37.2,30.22,NNW,328,2.0,3.0,82,0.00,,,0.00,Wunderground v.1.15,2013-01-17 04:55:00,
2013-01-16 21:00:00,42.2,37.1,30.22,NNW,328,2.0,3.0,82,0.00,,,0.00,Wunderground v.1.15,2013-01-17 05:00:00,
2013-01-16 21:04:00,42.0,36.9,30.22,NNW,328,1.0,3.0,82,0.00,,,0.00,Wunderground v.1.15,2013-01-17 05:04:00,
2013-01-16 21:05:00,42.0,36.9,30.22,NNW,328,1.0,3.0,82,0.00,,,0.00,Wunderground v.1.15,2013-01-17 05:05:00,
2013-01-16 21:10:00,41.8,37.0,30.21,NNW,328,1.0,3.0,83,0.00,,,0.00,Wunderground v.1.15,2013-01-17 05:10:00,
2013-01-16 21:15:00,41.4,36.6,30.21,NNW,328,1.0,3.0,83,0.00,,,0.00,Wunderground v.1.15,2013-01-17 05:15:00,
2013-01-16 21:21:00,41.0,36.2,30.21,NNW,328,2.0,3.0,83,0.00,,,0.00,Wunderground v.1.15,2013-01-17 05:21:00,
2013-01-16 21:27:00,40.9,36.4,30.21,NNW,327,2.0,3.0,84,0.00,,,0.00,Wunderground v.1.15,2013-01-17 05:27:00,
2013-01-16 21:32:00,41.1,36.6,30.21,NNW,327,2.0,3.0,84,0.00,,,0.00,Wunderground v.1.15,2013-01-17 05:32:00,
2013-01-16 21:38:00,41.2,36.7,30.21,North,3,2.0,3.0,84,0.00,,,0.00,Wunderground v.1.15,2013-01-17 05:38:00,
2013-01-16 21:44:00,41.4,36.6,30.21,NNW,339,2.0,3.0,83,0.00,,,0.00,Wunderground v.1.15,2013-01-17 05:44:00,
2013-01-16 21:50:00,41.5,36.7,30.21,NNW,339,2.0,3.0,83,0.00,,,0.00,Wunderground v.1.15,2013-01-17 05:50:00,
2013-01-16 21:55:00,41.4,36.6,30.21,NNW,338,2.0,3.0,83,0.00,,,0.00,Wunderground v.1.15,2013-01-17 05:55:00,
2013-01-16 22:01:00,41.2,36.4,30.21,NNW,338,2.0,3.0,83,0.00,,,0.00,Wunderground v.1.15,2013-01-17 06:01:00,
2013-01-16 22:07:00,41.1,36.3,30.20,NNW,338,2.0,3.0,83,0.00,,,0.00,Wunderground v.1.15,2013-01-17 06:07:00,
2013-01-16 22:12:00,41.0,36.2,30.21,NNW,338,1.0,3.0,83,0.00,,,0.00,Wunderground v.1.15,2013-01-17 06:12:00,
2013-01-16 22:17:00,41.1,36.3,30.21,NNW,338,0.0,3.0,83,0.00,,,0.00,Wunderground v.1.15,2013-01-17 06:17:00,
2013-01-16 22:23:00,41.4,36.6,30.21,NNW,338,1.0,3.0,83,0.00,,,0.00,Wunderground v.1.15,2013-01-17 06:23:00,
2013-01-16 22:29:00,41.3,36.2,30.21,NNW,338,1.0,3.0,82,0.00,,,0.00,Wunderground v.1.15,2013-01-17 06:29:00,
2013-01-16 22:35:00,41.5,36.4,30.20,NNW,338,1.0,3.0,82,0.00,,,0.00,Wunderground v.1.15,2013-01-17 06:35:00,
2013-01-16 22:40:00,41.5,36.1,30.20,NNW,338,1.0,3.0,81,0.00,,,0.00,Wunderground v.1.15,2013-01-17 06:40:00,
2013-01-16 22:46:00,40.7,35.6,30.20,NNW,338,1.0,3.0,82,0.00,,,0.00,Wunderground v.1.15,2013-01-17 06:46:00,
2013-01-16 22:52:00,40.4,35.6,30.20,NNW,330,2.0,3.0,83,0.00,,,0.00,Wunderground v.1.15,2013-01-17 06:52:00,
2013-01-16 22:58:00,39.7,35.3,30.20,NNW,330,2.0,3.0,84,0.00,,,0.00,Wunderground v.1.15,2013-01-17 06:58:00,
2013-01-16 23:03:00,39.5,35.1,30.20,NNW,331,1.0,3.0,84,0.00,,,0.00,Wunderground v.1.15,2013-01-17 07:03:00,
2013-01-16 23:08:00,39.5,35.1,30.20,NNW,330,1.0,3.0,84,0.00,,,0.00,Wunderground v.1.15,2013-01-17 07:08:00,
2013-01-16 23:13:00,39.0,34.9,30.20,NNW,330,2.0,3.0,85,0.00,,,0.00,Wunderground v.1.15,2013-01-17 07:13:00,
2013-01-16 23:19:00,38.9,34.8,30.20,NNW,330,2.0,3.0,85,0.00,,,0.00,Wunderground v.1.15,2013-01-17 07:19:00,
2013-01-16 23:25:00,39.0,35.2,30.20,NNW,330,2.0,3.0,86,0.00,,,0.00,Wunderground v.1.15,2013-01-17 07:25:00,
2013-01-16 23:30:00,38.9,35.1,30.20,NNW,330,2.0,3.0,86,0.00,,,0.00,Wunderground v.1.15,2013-01-17 07:30:00,
2013-01-16 23:36:00,39.0,35.5,30.20,NW,319,2.0,3.0,87,0.00,,,0.00,Wunderground v.1.15,2013-01-17 07:36:00,
2013-01-16 23:42:00,39.1,35.0,30.20,NW,319,1.0,3.0,85,0.00,,,0.00,Wunderground v.1.15,2013-01-17 07:42:00,
2013-01-16 23:48:00,38.8,35.0,30.20,NW,319,1.0,3.0,86,0.00,,,0.00,Wunderground v.1.15,2013-01-17 07:48:00,
2013-01-16 23:54:00,38.7,34.9,30.20,NNW,343,1.0,3.0,86,0.00,,,0.00,Wunderground v.1.15,2013-01-17 07:54:00,
2013-01-16 23:59:00,38.4,34.6,30.20,West,274,1.0,3.0,86,0.00,,,0.00,Wunderground v.1.15,2013-01-17 07:59:00,